Orangeville, Utah
Current Conditions -  °F | °C
As of 2:53 AM on Saturday 22 Nov 2014 (Local Time) from KPUC Reporting Station
Clear Clear  
Wind Chill: 21°   Ceiling: Unl
Heat Index: 26°   Visibility: 10mi
Dew Point: 13°   Wind: 5mph
Humidity: 58%   Direction: 360°N
Pressure: 30.06"   Gusts: NA
Location:  39.23°N, 111.05°W
Report Text: KPUC 220953Z AUTO 36004KT 10SM CLR M03/M11 A3006 RMK AO2 SLP197 T10331106
Loading
Personal Weather Stations






























Interactive Weather Map New forecast layout! Learn more

10-Day Weather Forecast

Advertisements
Track Severe Weather on mobile